• Join FlightAware (Why Join?)
  • Login
  • US Flag 
06:00AM EDT


 

Airport Tracker/Info


-or-


 

Live Flight TrackerFlight Track Log ✈ N830QS ✈ 20-Jan-2014 ✈ KFTW - KJAN

Flight Track Log - Related Links

Times and Time Zones

All times are in EST time to prevent confusion due to time zone crossing. See the N830QS flight status page for this flight to view local times or setup timezone preferences in your user account.

Time Position Orientation Groundspeed Altitude Reporting Facility
EST Latitude Longitude Course Direction KTS MPH feet Rate Location/Type
10:09AM 32.8167 -97.3500 180° South 182 209 1,500  Level Dallas / Fort Worth TRACON
10:10AM 32.7833 -97.3500 180° South 210 242 2,600 1,740 Climbing Dallas / Fort Worth TRACON
10:11AM 32.7419 -97.3361 164° South 223 257 3,600 2,160 Climbing Fort Worth Center
10:12AM 32.6825 -97.3200 167° South 219 252 6,600 3,120 Climbing Fort Worth Center
10:13AM 32.6258 -97.2611 139° Southeast 289 333 10,100 3,480 Climbing Fort Worth Center
10:14AM 32.6367 -97.1464 84° East 339 390 13,800 3,000 Climbing Fort Worth Center
10:15AM 32.6500 -97.0167 83° East 384 442 16,600 1,500 Climbing Dallas / Fort Worth TRACON
10:16AM 32.6833 -96.8833 73° East 405 466 17,000 840 Climbing Dallas / Fort Worth TRACON
10:18AM 32.7219 -96.6203 80° East 400 460 19,200 1,320 Climbing Fort Worth Center
10:19AM 32.7419 -96.4856 80° East 417 480 21,200 1,920 Climbing Fort Worth Center
10:20AM 32.7628 -96.3489 80° East 423 487 23,200 1,320 Climbing Fort Worth Center
10:21AM 32.7833 -96.2158 80° East 434 499 24,000 360 Climbing Fort Worth Center
10:22AM 32.7856 -96.0628 89° East 466 536 24,000 180 Level Fort Worth Center
10:23AM 32.7864 -95.8800 90° East 464 534 24,400 1,020 Climbing Fort Worth Center
10:24AM 32.7875 -95.7306 89° East 455 524 26,100 1,380 Climbing Fort Worth Center
10:25AM 32.7861 -95.5775 91° East 461 531 27,300 1,200 Climbing Fort Worth Center
10:26AM 32.7858 -95.4222 90° East 470 541 28,700 1,320 Climbing Fort Worth Center
10:27AM 32.7856 -95.2536 90° East 476 548 30,100 1,260 Climbing Fort Worth Center
10:28AM 32.7844 -95.0947 90° East 481 554 31,400 1,200 Climbing Fort Worth Center
10:29AM 32.7836 -94.9364 90° East 481 554 32,700 720 Climbing Fort Worth Center
10:30AM 32.7833 -94.7753 90° East 488 562 33,000 120 Climbing Fort Worth Center
10:31AM 32.7808 -94.5736 91° East 511 588 33,000  Level Fort Worth Center
10:32AM 32.7786 -94.4072 91° East 508 585 33,000  Level Fort Worth Center
10:33AM 32.7764 -94.2425 91° East 503 579 33,000  Level Fort Worth Center
10:34AM 32.7742 -94.0772 91° East 504 580 33,000  Level Fort Worth Center
10:35AM 32.7725 -93.9119 91° East 505 581 33,000  Level Fort Worth Center
10:36AM 32.7628 -93.7131 93° East 507 583 33,000  Level Fort Worth Center
10:37AM 32.7508 -93.5481 95° East 507 583 33,000  Level Fort Worth Center
10:38AM 32.7375 -93.3814 95° East 510 587 33,000  Level Fort Worth Center
10:39AM 32.7242 -93.2164 95° East 507 583 33,000  Level Fort Worth Center
10:40AM 32.7103 -93.0494 96° East 509 586 33,000  Level Fort Worth Center
10:42AM 32.6931 -92.8508 96° East 508 585 33,000  Level Fort Worth Center
10:43AM 32.6817 -92.6833 95° East 510 587 33,000  Level Fort Worth Center
10:44AM 32.6675 -92.5181 96° East 508 585 33,000  Level Fort Worth Center
10:45AM 32.6525 -92.3608 96° East 506 582 33,000  Level Fort Worth Center
10:46AM 32.6356 -92.1617 96° East 505 581 33,000  Level Fort Worth Center
10:47AM 32.6208 -91.9961 96° East 503 579 33,000 -840 Level Fort Worth Center
10:48AM 32.6061 -91.8339 96° East 495 570 31,300 -2,160 Descending Fort Worth Center
10:49AM 32.5911 -91.6814 97° East 471 542 28,600 -2,760 Descending Fort Worth Center
10:50AM 32.5781 -91.5586 97° East 463 533 26,300 -2,760 Descending Memphis Center
10:51AM 32.5644 -91.4111 96° East 457 526 23,600 -2,640 Descending Memphis Center
10:52AM 32.5522 -91.2706 96° East 439 505 20,900 -2,640 Descending Memphis Center
10:53AM 32.5400 -91.1378 96° East 416 479 18,200 -2,580 Descending Memphis Center
10:54AM 32.5258 -91.0081 97° East 404 465 15,700 -2,820 Descending Memphis Center
10:55AM 32.5114 -90.8608 97° East 390 449 12,500 -2,220 Descending Memphis Center
10:56AM 32.4997 -90.7447 97° East 375 432 11,200 -660 Descending Memphis Center
10:57AM 32.4886 -90.6308 97° East 363 418 11,200 -540 Level Memphis Center
10:58AM 32.4731 -90.5303 100° East 336 387 10,100 -1,560 Descending Memphis Center
10:59AM 32.4597 -90.4369 100° East 306 352 8,000 -2,280 Descending Memphis Center
11:00AM 32.4433 -90.3278 100° East 291 335 5,400 -2,280 Descending Memphis Center
11:01AM 32.4294 -90.2400 101° East 283 326 3,400 -1,440 Descending Memphis Center
11:02AM 32.4172 -90.1625 101° East 266 306 2,500 -780 Descending Memphis Center
11:03AM 32.3917 -90.1086 119° Southeast 221 254 1,800 -720 Descending Memphis Center
11:04AM 32.3578 -90.0914 157° South 168 193 1,100 -600 Descending Memphis Center
11:05AM 32.3208 -90.0758 160° South 147 169 600 -540 Descending Memphis Center
11:07AM 32.3112 -90.0759 168° South  Level Estimated